Latest Weather Observations for Gold Coast Seaway

IDQ60901

Issued at 7:05 pm EST Monday 24 November 2014 (issued every 10 minutes, with the page automatically refreshed every 10 minutes)

About weather observations | Map of Brisbane area stations | Latest observations for Brisbane area | Other Formats
Station Details ID: 040764 Name: GOLD COAST SEAWAY Lat: -27.94 Lon: 153.43 Height: 2.98 m
Data from the previous 72 hours. | See also: Recent months at Gold Coast Seaway
Date/Time
EST
Tmp

°C
App
Tmp
°C
Dew
Point
°C
Rel
Hum
%
Delta-T

°C
Wind Press
QNH
hPa
Press
MSL
hPa
Rain
since
9 am
mm
Dir
 
Spd
km/h
Gust
km/h
Spd
kts
Gust
kts
24/07:00pm 21.3 20.9 19.0 87 1.4 N 19 24 10 13 1013.7 1013.7 0.0
24/06:30pm 21.8 19.8 19.2 85 1.6 N 28 32 15 17 1013.2 1013.2 0.0
24/06:00pm 22.3 19.9 19.1 82 2.0 N 30 33 16 18 1013.1 1013.1 0.0
24/05:30pm 22.9 20.8 18.9 78 2.5 N 28 32 15 17 1012.7 1012.7 0.0
24/05:00pm 23.5 20.7 19.0 76 2.9 N 32 35 17 19 1012.4 1012.4 0.0
24/04:30pm 24.0 21.7 19.3 75 3.0 N 30 35 16 19 1012.3 1012.3 0.0
24/04:00pm 23.0 20.6 19.0 78 2.5 N 30 33 16 18 1012.4 1012.4 0.0
24/03:30pm 24.3 21.4 18.9 72 3.4 NNE 32 35 17 19 1012.7 1012.7 0.0
24/03:00pm 24.8 22.0 19.0 70 3.7 NNE 32 35 17 19 1013.0 1013.0 0.0
24/02:30pm 25.2 22.4 19.1 69 3.9 NNE 32 37 17 20 1013.2 1013.2 0.0
24/02:00pm 25.9 23.1 19.1 66 4.4 NNE 32 37 17 20 1013.7 1013.7 0.0
24/01:30pm 26.2 23.2 18.6 63 4.8 NNE 32 35 17 19 1014.3 1014.3 0.0
24/01:00pm 26.3 23.1 18.7 63 4.8 NNE 33 37 18 20 1014.5 1014.5 0.0
24/12:30pm 26.3 23.6 18.4 61 5.0 NNE 30 35 16 19 1014.9 1014.9 0.0
24/12:00pm 26.1 23.0 18.5 63 4.8 NNE 32 35 17 19 1015.5 1015.5 0.0
24/11:30am 26.1 23.7 18.2 61 5.0 NNE 28 35 15 19 1016.0 1016.0 0.0
24/11:00am 26.5 23.8 18.4 61 5.1 NNE 30 37 16 20 1016.4 1016.4 0.0
24/10:30am 28.3 23.7 15.2 44 8.0 N 33 39 18 21 1016.6 1016.6 0.0
24/10:00am 28.8 24.8 15.3 43 8.2 N 30 39 16 21 1017.0 1017.0 0.0
24/09:30am 28.8 26.0 16.4 47 7.7 N 26 37 14 20 1017.3 1017.3 0.0
24/09:00am 28.5 26.5 17.4 51 7.0 N 24 33 13 18 1017.4 1017.4 0.0
24/08:30am 26.9 25.7 18.5 60 5.4 N 22 33 12 18 1017.5 1017.5 0.0
24/08:00am 26.9 26.1 19.3 63 4.9 N 22 32 12 17 1017.7 1017.7 0.0
24/07:30am 25.4 25.8 19.8 71 3.6 NNW 17 26 9 14 1017.8 1017.8 0.0
24/07:00am 24.5 25.3 20.6 79 2.5 N 17 24 9 13 1017.6 1017.6 0.0
24/06:30am 23.2 24.2 20.3 84 1.9 NNW 15 19 8 10 1017.5 1017.5 0.0
24/06:00am 23.3 24.0 20.4 84 1.9 NNW 17 22 9 12 1017.4 1017.4 0.0
24/05:30am 23.3 24.6 20.8 86 1.6 N 15 20 8 11 1017.2 1017.2 0.0
24/05:00am 22.5 23.9 21.1 92 0.9 N 15 19 8 10 1016.9 1016.9 0.0
24/04:30am 21.9 23.5 20.7 93 0.8 N 13 15 7 8 1016.7 1016.7 0.0
24/04:00am 22.0 23.5 20.6 92 0.9 N 13 17 7 9 1016.4 1016.4 0.0
24/03:30am 21.9 23.5 21.4 97 0.3 N 15 19 8 10 1016.4 1016.4 0.0
24/03:00am 21.8 23.2 21.1 96 0.5 N 15 19 8 10 1016.3 1016.3 0.0
24/02:30am 21.7 23.3 21.4 98 0.2 N 15 19 8 10 1016.2 1016.2 0.0
24/02:00am 21.3 23.1 21.1 99 0.1 N 13 17 7 9 1016.3 1016.3 0.0
24/01:30am 21.3 23.1 21.1 99 0.1 N 13 15 7 8 1016.3 1016.3 0.0
24/01:00am 21.4 23.6 21.2 99 0.1 N 11 13 6 7 1016.6 1016.6 0.0
24/12:30am 21.1 23.5 20.9 99 0.1 N 9 11 5 6 1016.8 1016.8 0.0
24/12:00am 21.0 23.0 20.8 99 0.1 N 11 13 6 7 1016.9 1016.9 0.0
 
Date/Time
EST
Tmp

°C
App
Tmp
°C
Dew
Point
°C
Rel
Hum
%
Delta-T

°C
Wind Press
QNH
hPa
Press
MSL
hPa
Rain
since
9 am
mm
Dir
 
Spd
km/h
Gust
km/h
Spd
kts
Gust
kts
23/11:30pm 21.2 22.9 21.0 99 0.1 N 13 13 7 7 1017.2 1017.2 0.0
23/11:00pm 21.3 23.5 21.1 99 0.1 N 11 15 6 8 1017.1 1017.1 0.0
23/10:30pm 21.7 23.7 21.5 99 0.1 N 13 17 7 9 1017.0 1017.0 0.0
23/10:00pm 21.7 24.1 21.5 99 0.1 N 11 15 6 8 1016.9 1016.9 0.0
23/09:30pm 21.5 23.8 21.3 99 0.1 N 11 13 6 7 1016.9 1016.9 0.0
23/09:00pm 22.0 23.9 21.3 96 0.5 N 13 15 7 8 1016.9 1016.9 0.0
23/08:30pm 22.0 23.9 21.3 96 0.5 N 13 15 7 8 1016.6 1016.6 0.0
23/08:00pm 21.9 23.0 20.5 92 0.9 N 15 17 8 9 1016.4 1016.4 0.0
23/07:30pm 21.9 22.8 20.0 89 1.2 N 15 19 8 10 1016.0 1016.0 0.0
23/07:00pm 22.0 22.1 19.9 88 1.3 N 19 22 10 12 1015.6 1015.6 0.0
23/06:30pm 22.1 22.5 19.8 87 1.5 N 17 20 9 11 1015.2 1015.2 0.0
23/06:00pm 22.4 21.7 19.6 84 1.8 N 22 28 12 15 1014.7 1014.7 0.0
23/05:30pm 22.3 21.4 19.1 82 2.0 N 22 26 12 14 1013.9 1013.9 0.0
23/05:00pm 22.8 21.6 19.2 80 2.3 N 24 26 13 14 1014.0 1014.0 0.0
23/04:30pm 22.8 20.6 18.8 78 2.5 N 28 32 15 17 1014.0 1014.0 0.0
23/04:00pm 23.5 22.1 18.8 75 3.0 N 24 30 13 16 1014.2 1014.2 0.0
23/03:30pm 24.3 22.2 18.9 72 3.4 N 28 32 15 17 1013.9 1013.9 0.0
23/03:00pm 24.5 21.8 18.4 69 3.9 N 30 35 16 19 1014.2 1014.2 0.0
23/02:30pm 25.1 22.0 18.5 67 4.2 N 32 37 17 20 1014.3 1014.3 0.0
23/02:00pm 25.5 22.3 18.2 64 4.6 N 32 35 17 19 1014.7 1014.7 0.0
23/01:30pm 25.4 23.0 18.3 65 4.5 N 28 32 15 17 1015.3 1015.3 0.0
23/01:00pm 25.1 22.0 18.5 67 4.2 N 32 35 17 19 1015.3 1015.3 0.0
23/12:30pm 25.1 22.3 18.3 66 4.3 N 30 33 16 18 1015.6 1015.6 0.0
23/12:00pm 25.4 22.4 18.6 66 4.3 NNE 32 37 17 20 1016.0 1016.0 0.0
23/11:30am 25.6 22.7 18.8 66 4.3 NNE 32 35 17 19 1016.6 1016.6 0.0
23/11:00am 25.9 22.9 19.1 66 4.4 NNE 33 37 18 20 1016.9 1016.9 0.0
23/10:30am 26.0 23.1 19.2 66 4.4 NNE 33 37 18 20 1017.1 1017.1 0.0
23/10:00am 26.0 23.7 19.4 67 4.2 NNE 30 35 16 19 1017.2 1017.2 0.0
23/09:30am 24.7 23.6 18.6 69 3.9 NNE 22 30 12 16 1017.6 1017.6 0.0
23/09:00am 25.3 23.6 19.0 68 4.0 NNE 26 32 14 17 1017.4 1017.4 0.0
23/08:30am 26.0 24.6 18.9 65 4.5 N 24 30 13 16 1017.5 1017.5 0.0
23/08:00am 27.3 25.3 19.1 61 5.3 N 28 39 15 21 1017.5 1017.5 0.0
23/07:30am 26.3 26.2 19.9 68 4.2 N 20 28 11 15 1017.4 1017.4 0.0
23/07:00am 24.9 25.8 20.8 78 2.7 N 17 28 9 15 1017.5 1017.5 0.0
23/06:30am 22.6 24.3 20.9 90 1.1 N 13 17 7 9 1017.3 1017.3 0.0
23/06:00am 22.4 24.1 21.6 95 0.5 N 15 19 8 10 1016.7 1016.7 0.0
23/05:30am 21.8 23.3 20.6 93 0.8 N 13 17 7 9 1016.3 1016.3 0.0
23/05:00am 21.9 23.1 20.0 89 1.2 N 13 19 7 10 1015.9 1015.9 0.0
23/04:30am 24.0 24.7 20.5 81 2.3 N 17 26 9 14 1015.7 1015.7 0.0
23/04:00am 23.5 24.9 21.8 90 1.1 N 17 24 9 13 1015.4 1015.4 0.0
23/03:30am 21.6 22.8 21.4 99 0.1 N 17 22 9 12 1015.0 1015.0 0.0
23/03:00am 21.4 22.9 21.2 99 0.1 N 15 17 8 9 1014.9 1014.9 0.0
23/02:30am 21.3 23.1 21.1 99 0.1 N 13 17 7 9 1014.8 1014.8 0.0
23/02:00am 21.2 22.9 21.0 99 0.1 N 13 15 7 8 1014.8 1014.8 0.0
23/01:30am 21.3 23.5 21.1 99 0.1 N 11 13 6 7 1015.0 1015.0 0.0
23/01:00am 21.3 23.5 21.1 99 0.1 N 11 13 6 7 1015.1 1015.1 0.0
23/12:30am 21.2 23.3 21.0 99 0.1 N 11 13 6 7 1015.4 1015.4 0.0
23/12:00am 21.2 22.9 21.0 99 0.1 N 13 15 7 8 1015.4 1015.4 0.0
 
Date/Time
EST
Tmp

°C
App
Tmp
°C
Dew
Point
°C
Rel
Hum
%
Delta-T

°C
Wind Press
QNH
hPa
Press
MSL
hPa
Rain
since
9 am
mm
Dir
 
Spd
km/h
Gust
km/h
Spd
kts
Gust
kts
22/11:30pm 21.3 23.8 21.1 99 0.1 N 9 11 5 6 1015.7 1015.7 0.0
22/11:00pm 21.4 23.6 21.2 99 0.1 N 11 13 6 7 1015.8 1015.8 0.0
22/10:30pm 21.1 23.1 19.9 93 0.8 N 9 11 5 6 1015.8 1015.8 0.0
22/10:00pm 21.8 24.5 21.3 97 0.3 N 9 11 5 6 1015.7 1015.7 0.0
22/09:30pm 21.7 24.0 21.4 98 0.2 N 11 13 6 7 1015.7 1015.7 0.0
22/09:00pm 21.3 23.1 20.3 94 0.6 N 11 13 6 7 1015.4 1015.4 0.0
22/08:30pm 21.6 23.7 20.9 96 0.5 N 11 15 6 8 1015.1 1015.1 0.0
22/08:00pm 21.5 22.5 20.3 93 0.8 N 15 17 8 9 1014.7 1014.7 0.0
22/07:30pm 21.6 22.4 19.9 90 1.1 N 15 19 8 10 1014.3 1014.3 0.0
22/07:00pm 22.0 21.9 19.9 88 1.3 N 20 24 11 13 1013.7 1013.7 0.0
22/06:30pm 22.3 21.5 20.0 87 1.5 N 24 28 13 15 1013.2 1013.2 0.0
22/06:00pm 22.6 20.9 19.9 85 1.7 N 28 32 15 17 1012.7 1012.7 0.0
22/05:30pm 23.0 20.7 20.1 84 1.9 N 32 35 17 19 1012.3 1012.3 0.0
22/05:00pm 23.2 21.7 20.2 83 1.9 N 28 32 15 17 1012.0 1012.0 0.0
22/04:30pm 24.1 21.8 20.2 79 2.5 NNE 32 35 17 19 1011.8 1011.8 0.0
22/04:00pm 23.7 22.1 20.0 80 2.4 N 28 30 15 16 1011.6 1011.6 0.0
22/03:30pm 24.3 22.8 20.2 78 2.7 N 28 32 15 17 1011.7 1011.7 0.0
22/03:00pm 24.7 22.4 20.2 76 2.9 N 32 37 17 20 1011.6 1011.6 0.0
22/02:30pm 25.0 22.6 20.3 75 3.1 N 33 39 18 21 1011.7 1011.7 0.0
22/02:00pm 25.3 22.8 20.1 73 3.4 N 33 39 18 21 1012.1 1012.1 0.0
22/01:30pm 25.2 22.6 19.8 72 3.5 N 33 37 18 20 1012.3 1012.3 0.0
22/01:00pm 25.5 23.2 20.1 72 3.5 N 32 35 17 19 1012.7 1012.7 0.0
22/12:30pm 25.4 23.0 20.0 72 3.5 N 32 35 17 19 1012.9 1012.9 0.0
22/12:00pm 26.2 23.3 20.1 69 4.0 NNE 35 39 19 21 1013.4 1013.4 0.0
22/11:30am 26.4 23.6 20.3 69 4.0 NNE 35 39 19 21 1013.7 1013.7 0.0
22/11:00am 24.9 24.8 19.5 72 3.5 N 19 24 10 13 1014.0 1014.0 0.0
22/10:30am 25.4 25.4 20.2 73 3.4 N 20 26 11 14 1014.3 1014.3 0.0
22/10:00am 24.5 24.5 19.8 75 3.0 N 19 24 10 13 1014.7 1014.7 0.0
22/09:30am 25.6 25.0 18.8 66 4.3 N 20 30 11 16 1014.7 1014.7 0.0
22/09:00am 25.3 24.5 19.2 69 3.9 N 22 30 12 16 1014.8 1014.8 0.2
22/08:30am 27.4 28.1 20.5 66 4.5 N 17 26 9 14 1014.8 1014.8 0.2
22/08:00am 26.7 27.2 21.2 72 3.6 N 20 30 11 16 1014.7 1014.7 0.2
22/07:30am 26.1 26.6 22.0 78 2.7 N 22 33 12 18 1014.8 1014.8 0.2
22/07:00am 24.8 26.4 22.1 85 1.8 NNW 17 24 9 13 1014.6 1014.6 0.2
22/06:30am 24.6 26.3 22.3 87 1.5 NNW 17 26 9 14 1014.4 1014.4 0.2
22/06:00am 24.5 25.5 22.2 87 1.5 NNW 20 30 11 16 1014.0 1014.0 0.2
22/05:30am 24.7 25.5 21.8 84 1.9 N 20 32 11 17 1013.8 1013.8 0.2
22/05:00am 24.7 25.0 22.2 86 1.7 N 24 35 13 19 1013.4 1013.4 0.2
22/04:30am 24.7 25.2 22.0 85 1.8 N 22 35 12 19 1013.0 1013.0 0.2
22/04:00am 24.6 25.7 21.9 85 1.8 N 19 30 10 16 1012.4 1012.4 0.2
22/03:30am 24.8 25.4 22.1 85 1.8 N 22 35 12 19 1012.2 1012.2 0.2
22/03:00am 25.0 25.4 22.5 86 1.7 NNW 24 35 13 19 1012.3 1012.3 0.2
22/02:30am 24.8 25.9 23.0 90 1.2 N 22 32 12 17 1012.0 1012.0 0.2
22/02:00am 22.7 23.6 21.5 93 0.8 N 19 24 10 13 1011.5 1011.5 0.2
22/01:30am 24.6 25.2 23.4 93 0.8 N 26 35 14 19 1011.7 1011.7 0.2
22/01:00am 22.1 23.3 22.1 100 0.0 N 19 26 10 14 1012.0 1012.0 0.2
22/12:30am 21.6 22.9 21.6 100 0.0 N 17 20 9 11 1012.0 1012.0 0.2
22/12:00am 21.6 22.8 21.4 99 0.1 N 17 20 9 11 1012.3 1012.3 0.2
 
Date/Time
EST
Tmp

°C
App
Tmp
°C
Dew
Point
°C
Rel
Hum
%
Delta-T

°C
Wind Press
QNH
hPa
Press
MSL
hPa
Rain
since
9 am
mm
Dir
 
Spd
km/h
Gust
km/h
Spd
kts
Gust
kts
21/11:30pm 22.0 23.5 21.2 95 0.5 N 15 19 8 10 1012.9 1012.9 0.2
21/11:00pm 22.7 24.5 22.5 99 0.1 N 17 20 9 11 1013.3 1013.3 0.2
21/10:30pm 22.1 23.7 21.4 96 0.5 N 15 17 8 9 1013.5 1013.5 0.2
21/10:00pm 23.6 26.6 23.3 98 0.2 N 13 19 7 10 1013.6 1013.6 0.2
21/09:30pm 22.6 25.1 22.4 99 0.1 N 13 17 7 9 1013.4 1013.4 0.2
21/09:00pm 22.4 24.5 22.4 100 0.0 N 15 19 8 10 1013.6 1013.6 0.2
21/08:30pm 21.9 24.1 21.9 100 0.0 N 13 17 7 9 1013.1 1013.1 0.2
21/08:00pm 22.0 23.4 21.8 99 0.1 N 17 19 9 10 1012.9 1012.9 0.2
21/07:30pm 22.0 23.8 21.8 99 0.1 N 15 17 8 9 1012.9 1012.9 0.2

Latest Capital City Observations: Canberra | Sydney | Melbourne | Brisbane | Adelaide | Perth | Hobart | Darwin

Other Formats:

Comma delimited format used in spreadsheet applications
http://www.bom.gov.au/fwo/IDQ60901/IDQ60901.94580.axf

JavaScript Object Notation format (JSON) in row-major order
http://www.bom.gov.au/fwo/IDQ60901/IDQ60901.94580.json